createdAt,value
2022-08-17T00:00:34.532Z,82.41
2022-08-17T00:05:40.606Z,82.54
2022-08-17T00:10:40.490Z,82.71
2022-08-17T00:15:40.072Z,82.79
2022-08-17T00:20:39.353Z,82.80
2022-08-17T00:25:38.369Z,83.01
2022-08-17T00:30:51.068Z,83.18
2022-08-17T00:35:53.404Z,83.30
2022-08-17T00:40:59.054Z,83.55
2022-08-17T00:45:59.742Z,83.79
2022-08-17T00:51:11.325Z,83.86
2022-08-17T00:56:17.147Z,83.97
2022-08-17T01:01:21.368Z,84.04
2022-08-17T01:06:22.983Z,84.03
2022-08-17T01:11:22.461Z,84.45
2022-08-17T01:16:25.589Z,84.63
2022-08-17T01:21:34.806Z,84.73
2022-08-17T01:26:36.067Z,84.75
2022-08-17T01:31:41.705Z,84.83
2022-08-17T01:36:43.030Z,85.07
2022-08-17T01:41:43.705Z,85.26
2022-08-17T01:46:43.519Z,85.16
2022-08-17T01:51:42.835Z,85.38
2022-08-17T01:56:47.101Z,85.52
2022-08-17T02:01:47.134Z,85.80
2022-08-17T02:06:53.102Z,85.84
2022-08-17T02:11:54.218Z,86.03
2022-08-17T02:16:53.127Z,86.10
2022-08-17T02:21:55.285Z,86.15
2022-08-17T02:26:54.213Z,86.18
2022-08-17T02:31:52.827Z,86.09
2022-08-17T02:36:53.491Z,86.38
2022-08-17T02:42:01.192Z,86.48
2022-08-17T02:46:59.878Z,86.42
2022-08-17T02:51:59.474Z,86.48
2022-08-17T02:56:58.317Z,86.56
2022-08-17T03:01:57.448Z,86.79
2022-08-17T03:06:55.984Z,86.71
2022-08-17T03:11:56.223Z,86.83
2022-08-17T03:16:55.165Z,86.98
2022-08-17T03:21:55.413Z,87.07
2022-08-17T03:26:54.142Z,87.12
2022-08-17T03:31:53.727Z,87.21
2022-08-17T03:36:52.185Z,87.42
2022-08-17T03:41:50.903Z,87.50
2022-08-17T03:47:07.161Z,87.63
2022-08-17T03:52:23.669Z,87.50
2022-08-17T03:57:23.156Z,87.52
2022-08-17T04:02:25.625Z,87.67
2022-08-17T04:07:31.811Z,87.73
2022-08-17T04:12:43.599Z,87.84
2022-08-17T04:17:44.300Z,87.95
2022-08-17T04:22:55.837Z,87.87
2022-08-17T04:27:55.228Z,87.74
2022-08-17T04:33:07.235Z,87.79
2022-08-17T04:38:07.546Z,87.97
2022-08-17T04:43:10.487Z,87.93
2022-08-17T04:48:10.500Z,88.08
2022-08-17T04:53:09.380Z,88.21
2022-08-17T04:58:09.270Z,88.32
2022-08-17T05:03:09.307Z,88.20
2022-08-17T05:08:10.145Z,88.17
2022-08-17T05:13:12.507Z,88.15
2022-08-17T05:18:12.723Z,88.64
2022-08-17T05:23:16.161Z,88.45
2022-08-17T05:28:16.157Z,88.56
2022-08-17T05:33:19.146Z,88.42
2022-08-17T05:38:20.218Z,88.27
2022-08-17T05:43:23.655Z,88.26
2022-08-17T05:48:22.444Z,88.03
2022-08-17T05:53:50.461Z,88.01
2022-08-17T05:59:12.149Z,87.85
2022-08-17T06:04:29.661Z,87.90
2022-08-17T06:09:41.278Z,87.77
2022-08-17T06:15:19.704Z,87.62
2022-08-17T06:20:19.939Z,87.38
2022-08-17T06:25:24.212Z,87.24
2022-08-17T06:30:27.984Z,86.91
2022-08-17T06:35:37.957Z,86.47
2022-08-17T06:41:00.865Z,86.18
2022-08-17T06:46:07.239Z,85.75
2022-08-17T06:51:19.803Z,84.94
2022-08-17T06:56:54.669Z,83.58
2022-08-17T07:01:56.888Z,83.00
2022-08-17T07:07:22.219Z,80.30
2022-08-17T07:12:30.013Z,80.57
2022-08-17T07:17:36.988Z,80.16
2022-08-17T07:22:59.632Z,79.57
2022-08-17T07:28:03.880Z,75.44
2022-08-17T07:33:20.448Z,75.27
2022-08-17T07:38:26.896Z,76.18
2022-08-17T07:43:29.733Z,75.39
2022-08-17T07:48:36.427Z,75.29
2022-08-17T07:53:34.814Z,74.15
2022-08-17T07:58:34.190Z,73.21
2022-08-17T08:03:34.186Z,72.72
2022-08-17T08:08:44.339Z,72.29
2022-08-17T08:13:46.202Z,71.96
2022-08-17T08:18:55.663Z,71.74
2022-08-17T08:24:11.093Z,71.58
2022-08-17T08:29:28.255Z,71.23
2022-08-17T08:35:00.735Z,70.09
2022-08-17T08:40:11.750Z,69.70
2022-08-17T08:45:21.698Z,69.27
2022-08-17T08:50:40.388Z,67.33
2022-08-17T08:55:56.308Z,67.08
2022-08-17T09:01:00.130Z,66.63
2022-08-17T09:06:37.729Z,66.14
2022-08-17T09:12:01.952Z,65.83
2022-08-17T09:17:13.810Z,65.35
2022-08-17T09:22:31.605Z,63.82
2022-08-17T09:27:51.734Z,63.75
2022-08-17T09:32:57.914Z,62.17
2022-08-17T09:38:04.970Z,60.90
2022-08-17T09:43:13.547Z,60.18
2022-08-17T09:48:19.122Z,57.80
2022-08-17T09:53:18.117Z,55.05
2022-08-17T09:58:31.810Z,55.49
2022-08-17T10:04:07.320Z,55.14
2022-08-17T10:09:16.198Z,52.36
2022-08-17T10:14:37.537Z,49.43
2022-08-17T10:19:53.402Z,50.46
2022-08-17T10:25:23.459Z,52.19
2022-08-17T10:30:29.180Z,53.21
2022-08-17T10:35:42.695Z,54.30
2022-08-17T10:40:55.442Z,54.31
2022-08-17T10:46:09.450Z,53.87
2022-08-17T10:51:42.431Z,53.95
2022-08-17T10:56:53.481Z,53.48
2022-08-17T11:02:17.003Z,52.94
2022-08-17T11:07:34.939Z,47.94
2022-08-17T11:13:02.530Z,44.48
2022-08-17T11:18:38.989Z,43.78
2022-08-17T11:24:22.174Z,45.36
2022-08-17T11:29:31.470Z,46.85
2022-08-17T11:34:33.105Z,46.80
2022-08-17T11:40:08.254Z,45.72
2022-08-17T11:45:34.625Z,45.51
2022-08-17T11:51:09.450Z,45.65
2022-08-17T11:56:13.505Z,48.24
2022-08-17T12:01:34.873Z,48.16
2022-08-17T12:06:46.389Z,49.09
2022-08-17T12:12:04.644Z,48.74
2022-08-17T12:17:14.325Z,46.67
2022-08-17T12:22:37.974Z,43.76
2022-08-17T12:28:06.719Z,43.73
2022-08-17T12:33:25.430Z,41.58
2022-08-17T12:38:33.214Z,39.18
2022-08-17T12:43:33.913Z,37.52
2022-08-17T12:48:34.807Z,36.75
2022-08-17T12:53:37.061Z,35.74
2022-08-17T12:58:53.630Z,35.22
2022-08-17T13:03:59.989Z,33.07
2022-08-17T13:09:09.543Z,32.79
2022-08-17T13:14:18.502Z,32.55
2022-08-17T13:19:40.007Z,33.49
2022-08-17T13:24:53.320Z,33.75
2022-08-17T13:29:59.748Z,31.27
2022-08-17T13:35:12.051Z,28.99
2022-08-17T13:40:53.377Z,28.73
2022-08-17T13:45:54.809Z,28.32
2022-08-17T13:51:38.391Z,29.12
2022-08-17T13:56:59.805Z,32.09
2022-08-17T14:01:58.935Z,33.14
2022-08-17T14:07:03.173Z,32.75
2022-08-17T14:12:04.558Z,32.29
2022-08-17T14:17:03.839Z,31.94
2022-08-17T14:22:03.633Z,31.53
2022-08-17T14:27:05.718Z,31.53
2022-08-17T14:32:18.424Z,30.84
2022-08-17T14:37:18.197Z,30.91
2022-08-17T14:42:17.674Z,29.99
2022-08-17T14:47:16.897Z,29.78
2022-08-17T14:52:21.927Z,30.59
2022-08-17T14:57:25.893Z,29.76
2022-08-17T15:02:44.130Z,30.22
2022-08-17T15:07:44.548Z,32.14
2022-08-17T15:12:44.491Z,33.52
2022-08-17T15:17:46.068Z,33.57
2022-08-17T15:22:50.054Z,34.74
2022-08-17T15:27:49.714Z,34.08
2022-08-17T15:32:54.100Z,33.86
2022-08-17T15:37:54.222Z,34.34
2022-08-17T15:42:53.217Z,35.44
2022-08-17T15:47:52.711Z,35.03
2022-08-17T15:52:58.178Z,34.73
2022-08-17T15:57:57.353Z,34.73
2022-08-17T16:03:45.049Z,35.56
2022-08-17T16:08:20.864Z,35.57
2022-08-17T16:13:21.326Z,35.63
2022-08-17T16:18:20.651Z,36.04
2022-08-17T16:23:20.822Z,36.06
2022-08-17T16:28:21.960Z,36.82
2022-08-17T16:33:21.694Z,36.94
2022-08-17T16:38:21.192Z,37.43
2022-08-17T16:43:20.645Z,38.34
2022-08-17T16:48:20.173Z,39.44
2022-08-17T16:53:21.986Z,39.67
2022-08-17T16:58:20.431Z,40.80
2022-08-17T17:03:24.350Z,41.78
2022-08-17T17:08:31.646Z,42.70
2022-08-17T17:13:38.996Z,43.44
2022-08-17T17:18:43.754Z,44.42
2022-08-17T17:23:56.034Z,45.77
2022-08-17T17:29:11.673Z,46.89
2022-08-17T17:34:17.358Z,48.22
2022-08-17T17:39:21.549Z,49.93
2022-08-17T17:44:27.519Z,51.38
2022-08-17T17:49:27.526Z,53.34
2022-08-17T17:54:54.340Z,53.61
2022-08-17T18:00:13.443Z,54.89
2022-08-17T18:05:22.683Z,56.03
2022-08-17T18:10:34.009Z,56.60
2022-08-17T18:15:41.451Z,56.62
2022-08-17T18:20:40.943Z,58.16
2022-08-17T18:25:55.678Z,58.89
2022-08-17T18:31:14.809Z,59.10
2022-08-17T18:36:14.877Z,59.77
2022-08-17T18:41:30.520Z,60.69
2022-08-17T18:46:37.651Z,60.95
2022-08-17T18:51:41.864Z,61.72
2022-08-17T18:56:44.884Z,63.08
2022-08-17T19:02:16.063Z,64.13
2022-08-17T19:07:33.676Z,64.18
2022-08-17T19:12:40.474Z,65.19
2022-08-17T19:17:49.282Z,66.06
2022-08-17T19:23:24.243Z,66.18
2022-08-17T19:28:29.846Z,66.45
2022-08-17T19:33:31.437Z,66.76
2022-08-17T19:38:46.564Z,67.26
2022-08-17T19:44:07.227Z,67.76
2022-08-17T19:49:18.167Z,68.42
2022-08-17T19:54:27.392Z,68.27
2022-08-17T19:59:49.601Z,69.03
2022-08-17T20:04:53.920Z,69.07
2022-08-17T20:10:04.271Z,69.32
2022-08-17T20:15:09.993Z,69.43
2022-08-17T20:20:26.879Z,69.69
2022-08-17T20:25:39.616Z,70.00
2022-08-17T20:30:43.879Z,70.29
2022-08-17T20:36:05.063Z,70.80
2022-08-17T20:41:18.212Z,71.12
2022-08-17T20:46:51.633Z,72.68
2022-08-17T20:52:07.825Z,72.29
2022-08-17T20:57:13.979Z,72.37
2022-08-17T21:02:24.726Z,72.12
2022-08-17T21:07:46.108Z,72.43
2022-08-17T21:12:49.370Z,72.74
2022-08-17T21:18:11.092Z,72.89
2022-08-17T21:23:28.246Z,73.16
2022-08-17T21:28:59.881Z,73.53
2022-08-17T21:34:29.715Z,73.27
2022-08-17T21:39:42.307Z,73.23
2022-08-17T21:44:48.229Z,73.74
2022-08-17T21:49:47.390Z,74.69
2022-08-17T21:54:53.266Z,75.28
2022-08-17T21:59:58.108Z,75.35
2022-08-17T22:05:06.905Z,75.16
2022-08-17T22:10:09.200Z,75.17
2022-08-17T22:15:17.741Z,75.28
2022-08-17T22:20:21.884Z,75.65
2022-08-17T22:25:29.904Z,75.81
2022-08-17T22:30:38.491Z,75.98
2022-08-17T22:35:50.244Z,76.11
2022-08-17T22:40:54.928Z,76.33
2022-08-17T22:45:58.324Z,76.74
2022-08-17T22:51:16.014Z,77.17
2022-08-17T22:56:41.266Z,77.25
2022-08-17T23:01:40.768Z,77.34
2022-08-17T23:06:43.009Z,77.40
2022-08-17T23:11:49.943Z,77.38
2022-08-17T23:16:50.389Z,77.74
2022-08-17T23:21:50.610Z,77.86
2022-08-17T23:26:49.531Z,78.11
2022-08-17T23:31:49.493Z,78.49
2022-08-17T23:36:53.380Z,78.19
2022-08-17T23:41:54.123Z,78.51
2022-08-17T23:46:53.802Z,78.76
2022-08-17T23:51:54.968Z,79.17
2022-08-17T23:56:54.459Z,79.39
